createdAt,value
2022-12-05T00:01:13.386Z,14.55
2022-12-05T00:06:36.527Z,11.93
2022-12-05T00:11:58.296Z,13.35
2022-12-05T00:17:20.087Z,14.57
2022-12-05T00:22:41.886Z,14.82
2022-12-05T00:28:03.818Z,14.85
2022-12-05T00:33:25.628Z,15.38
2022-12-05T00:38:47.836Z,15.48
2022-12-05T00:44:12.003Z,13.32
2022-12-05T00:49:33.891Z,13.30
2022-12-05T00:54:55.679Z,14.45
2022-12-05T01:00:17.908Z,15.48
2022-12-05T01:05:39.752Z,12.75
2022-12-05T01:11:02.405Z,14.52
2022-12-05T01:16:30.396Z,13.07
2022-12-05T01:21:53.103Z,14.40
2022-12-05T01:27:14.889Z,16.52
2022-12-05T01:32:36.643Z,14.18
2022-12-05T01:37:58.498Z,15.27
2022-12-05T01:43:20.382Z,14.50
2022-12-05T01:48:42.204Z,16.75
2022-12-05T01:54:05.309Z,14.38
2022-12-05T01:59:30.306Z,11.98
2022-12-05T02:05:02.537Z,14.02
2022-12-05T02:10:25.802Z,15.20
2022-12-05T02:15:59.320Z,12.48
2022-12-05T02:21:39.788Z,13.77
2022-12-05T02:27:04.517Z,14.75
2022-12-05T02:33:04.594Z,13.00
2022-12-05T02:38:49.910Z,14.25
2022-12-05T02:44:18.406Z,13.63
2022-12-05T02:49:42.080Z,12.35
2022-12-05T02:55:07.435Z,11.88
2022-12-05T03:00:29.224Z,12.43
2022-12-05T03:06:01.417Z,13.63
2022-12-05T03:11:23.613Z,9.85
2022-12-05T03:16:52.635Z,14.77
2022-12-05T03:22:24.284Z,11.82
2022-12-05T03:28:08.934Z,13.18
2022-12-05T03:33:36.005Z,11.60
2022-12-05T03:39:04.774Z,13.27
2022-12-05T03:44:42.663Z,13.38
2022-12-05T03:50:11.945Z,13.75
2022-12-05T03:55:39.247Z,12.85
2022-12-05T04:01:03.704Z,13.65
2022-12-05T04:06:39.163Z,12.35
2022-12-05T04:12:06.782Z,11.27
2022-12-05T04:17:53.930Z,13.27
2022-12-05T04:23:16.616Z,12.07
2022-12-05T04:28:54.230Z,11.75
2022-12-05T04:34:20.054Z,10.95
2022-12-05T04:39:48.935Z,11.88
2022-12-05T04:45:18.148Z,12.13
2022-12-05T04:50:41.953Z,9.55
2022-12-05T04:56:05.539Z,8.63
2022-12-05T05:01:50.715Z,8.18
2022-12-05T05:07:14.098Z,10.75
2022-12-05T05:12:35.893Z,9.68
2022-12-05T05:17:57.720Z,10.82
2022-12-05T05:23:19.498Z,9.75
2022-12-05T05:28:41.385Z,11.00
2022-12-05T05:34:09.393Z,10.93
2022-12-05T05:39:31.750Z,11.40
2022-12-05T05:44:53.578Z,10.52
2022-12-05T05:50:21.089Z,10.35
2022-12-05T05:55:43.401Z,9.13
2022-12-05T06:01:13.088Z,11.82
2022-12-05T06:06:34.924Z,11.55
2022-12-05T06:11:56.708Z,11.68
2022-12-05T06:17:18.723Z,9.80
2022-12-05T06:22:40.601Z,10.68
2022-12-05T06:28:02.409Z,11.70
2022-12-05T06:33:24.339Z,12.48
2022-12-05T06:38:46.122Z,7.15
2022-12-05T06:44:09.476Z,12.55
2022-12-05T06:49:34.917Z,10.98
2022-12-05T06:54:59.537Z,12.20
2022-12-05T07:00:21.456Z,11.60
2022-12-05T07:05:43.207Z,13.25
2022-12-05T07:11:05.233Z,13.32
2022-12-05T07:16:27.194Z,12.85
2022-12-05T07:21:49.045Z,9.35
2022-12-05T07:27:11.125Z,14.15
2022-12-05T07:32:34.139Z,12.77
2022-12-05T07:37:55.974Z,12.70
2022-12-05T07:43:17.737Z,9.93
2022-12-05T07:48:39.967Z,11.40
2022-12-05T07:54:02.375Z,12.38
2022-12-05T07:59:24.136Z,12.75
2022-12-05T08:04:45.959Z,11.40
2022-12-05T08:10:08.343Z,13.45
2022-12-05T08:15:30.259Z,12.95
2022-12-05T08:20:52.024Z,12.40
2022-12-05T08:26:15.523Z,11.73
2022-12-05T08:31:44.866Z,13.75
2022-12-05T08:37:06.639Z,14.82
2022-12-05T08:42:28.463Z,11.65
2022-12-05T08:47:50.261Z,12.18
2022-12-05T08:53:12.118Z,15.00
2022-12-05T08:58:34.764Z,15.60
2022-12-05T09:03:56.803Z,13.80
2022-12-05T09:09:18.675Z,12.18
2022-12-05T09:14:40.602Z,15.40
2022-12-05T09:20:03.771Z,15.40
2022-12-05T09:25:25.551Z,14.90
2022-12-05T09:31:02.385Z,16.17
2022-12-05T09:36:29.596Z,15.48
2022-12-05T09:41:57.437Z,15.95
2022-12-05T09:47:28.077Z,14.63
2022-12-05T09:53:18.369Z,16.20
2022-12-05T09:58:46.427Z,15.80
2022-12-05T10:04:54.443Z,16.25
2022-12-05T10:10:32.762Z,13.70
2022-12-05T10:16:00.047Z,16.00
2022-12-05T10:21:28.815Z,14.35
2022-12-05T10:26:59.084Z,16.15
2022-12-05T10:32:54.503Z,17.98
2022-12-05T10:38:32.698Z,17.53
2022-12-05T10:43:56.294Z,14.18
2022-12-05T10:49:18.817Z,16.52
2022-12-05T10:54:49.185Z,17.50
2022-12-05T11:00:15.917Z,19.30
2022-12-05T11:05:38.269Z,16.52
2022-12-05T11:11:17.739Z,18.10
2022-12-05T11:16:39.839Z,17.55
2022-12-05T11:22:02.619Z,18.98
2022-12-05T11:27:32.482Z,17.92
2022-12-05T11:33:20.683Z,16.67
2022-12-05T11:38:42.929Z,17.65
2022-12-05T11:44:22.509Z,17.60
2022-12-05T11:50:28.409Z,18.90
2022-12-05T11:56:16.821Z,16.58
2022-12-05T12:02:04.309Z,17.27
2022-12-05T12:07:51.064Z,18.10
2022-12-05T12:13:35.385Z,18.67
2022-12-05T12:19:15.518Z,18.58
2022-12-05T12:24:59.434Z,15.32
2022-12-05T12:30:38.024Z,18.05
2022-12-05T12:36:23.060Z,18.35
2022-12-05T12:42:18.455Z,18.25
2022-12-05T12:48:00.144Z,17.47
2022-12-05T12:53:42.102Z,17.85
2022-12-05T12:59:22.437Z,18.98
2022-12-05T13:04:52.991Z,18.30
2022-12-05T13:10:37.270Z,18.08
2022-12-05T13:16:01.550Z,16.88
2022-12-05T13:21:24.202Z,17.77
2022-12-05T13:26:49.031Z,17.73
2022-12-05T13:32:38.833Z,17.30
2022-12-05T13:38:00.664Z,17.13
2022-12-05T13:43:26.663Z,16.15
2022-12-05T13:48:49.737Z,18.33
2022-12-05T13:54:18.251Z,18.00
2022-12-05T14:00:05.202Z,18.70
2022-12-05T14:05:42.522Z,17.92
2022-12-05T14:11:04.315Z,16.42
2022-12-05T14:16:26.145Z,17.80
2022-12-05T14:22:03.312Z,18.13
2022-12-05T14:28:02.054Z,19.40
2022-12-05T14:33:23.885Z,18.40
2022-12-05T14:38:45.714Z,19.77
2022-12-05T14:44:18.447Z,18.33
2022-12-05T14:49:58.768Z,18.15
2022-12-05T14:55:26.455Z,19.17
2022-12-05T15:00:57.480Z,24.17
2022-12-05T15:06:20.370Z,20.05
2022-12-05T15:11:42.214Z,19.10
2022-12-05T15:17:06.028Z,19.98
2022-12-05T15:22:29.450Z,20.15
2022-12-05T15:28:19.019Z,20.58
2022-12-05T15:33:52.375Z,18.17
2022-12-05T15:39:23.702Z,22.35
2022-12-05T15:44:45.590Z,20.90
2022-12-05T15:50:25.820Z,19.60
2022-12-05T15:55:55.248Z,19.33
2022-12-05T16:01:20.925Z,19.30
2022-12-05T16:06:48.301Z,18.20
2022-12-05T16:12:19.252Z,21.20
2022-12-05T16:17:46.070Z,19.55
2022-12-05T16:23:43.562Z,21.83
2022-12-05T16:29:08.748Z,21.98
2022-12-05T16:34:33.703Z,19.50
2022-12-05T16:39:56.615Z,21.75
2022-12-05T16:45:39.676Z,19.80
2022-12-05T16:51:13.830Z,21.85
2022-12-05T16:56:36.165Z,19.77
2022-12-05T17:01:58.038Z,21.38
2022-12-05T17:07:19.910Z,20.65
2022-12-05T17:12:47.779Z,22.83
2022-12-05T17:18:18.561Z,20.05
2022-12-05T17:23:46.017Z,21.17
2022-12-05T17:29:09.700Z,20.35
2022-12-05T17:34:31.460Z,22.52
2022-12-05T17:39:53.206Z,21.63
2022-12-05T17:45:16.518Z,21.52
2022-12-05T17:50:40.635Z,23.75
2022-12-05T17:56:02.486Z,21.08
2022-12-05T18:01:24.444Z,22.73
2022-12-05T18:06:46.286Z,21.35
2022-12-05T18:12:08.090Z,20.52
2022-12-05T18:17:30.081Z,21.77
2022-12-05T18:22:51.893Z,22.95
2022-12-05T18:28:17.774Z,21.15
2022-12-05T18:33:43.405Z,21.55
2022-12-05T18:39:05.489Z,22.25
2022-12-05T18:44:27.269Z,18.15
2022-12-05T18:49:49.056Z,21.85
2022-12-05T18:55:17.274Z,22.65
2022-12-05T19:00:39.787Z,21.45
2022-12-05T19:06:02.046Z,21.05
2022-12-05T19:11:25.960Z,22.40
2022-12-05T19:16:58.074Z,21.35
2022-12-05T19:22:21.830Z,22.73
2022-12-05T19:27:45.393Z,21.05
2022-12-05T19:33:07.233Z,22.20
2022-12-05T19:38:34.162Z,22.30
2022-12-05T19:43:59.666Z,21.52
2022-12-05T19:49:21.719Z,22.73
2022-12-05T19:54:44.223Z,21.23
2022-12-05T20:00:07.109Z,22.70
2022-12-05T20:05:28.942Z,22.52
2022-12-05T20:10:50.717Z,22.50
2022-12-05T20:16:14.815Z,22.67
2022-12-05T20:21:37.985Z,23.70
2022-12-05T20:26:59.857Z,22.95
2022-12-05T20:32:21.679Z,22.88
2022-12-05T20:37:43.615Z,24.17
2022-12-05T20:43:05.604Z,24.05
2022-12-05T20:48:27.390Z,23.85
2022-12-05T20:53:50.214Z,23.67
2022-12-05T20:59:13.272Z,22.67
2022-12-05T21:04:35.074Z,24.10
2022-12-05T21:09:57.025Z,23.48
2022-12-05T21:15:19.121Z,25.25
2022-12-05T21:20:42.418Z,26.25
2022-12-05T21:26:06.912Z,25.45
2022-12-05T21:31:35.157Z,25.63
2022-12-05T21:36:57.159Z,26.38
2022-12-05T21:42:19.022Z,25.60
2022-12-05T21:47:40.879Z,24.13
2022-12-05T21:53:02.744Z,21.75
2022-12-05T21:58:24.626Z,24.75
2022-12-05T22:03:46.923Z,29.23
2022-12-05T22:09:08.764Z,22.13
2022-12-05T22:14:30.650Z,25.13
2022-12-05T22:19:52.476Z,24.33
2022-12-05T22:25:14.294Z,25.90
2022-12-05T22:30:36.054Z,25.40
2022-12-05T22:36:00.267Z,25.52
2022-12-05T22:41:25.170Z,25.63
2022-12-05T22:46:47.042Z,25.80
2022-12-05T22:52:08.871Z,26.25
2022-12-05T22:57:30.779Z,24.85
2022-12-05T23:02:52.931Z,26.40
2022-12-05T23:08:15.141Z,24.30
2022-12-05T23:13:38.235Z,24.23
2022-12-05T23:19:02.909Z,24.55
2022-12-05T23:24:24.732Z,22.83
2022-12-05T23:29:47.139Z,24.17
2022-12-05T23:35:09.141Z,25.38
2022-12-05T23:40:30.945Z,24.38
2022-12-05T23:45:52.814Z,25.33
2022-12-05T23:51:18.186Z,24.60
2022-12-05T23:56:40.096Z,24.38
